Aurora, CO (80011)

1:02 PM MST on February 26, 2017 (GMT -0700)
Rinker - Norfolk Glen | | Change Station

Elev 5456 ft 39.75 °N, 104.80 °W | Updated 18 seconds ago

Clear
Clear
43.3 °F
Feels Like 43 °F
N
2.0
Wind Variable Wind from WNW
Gusts 3.0 mph

Today
High -- | Low -- °F
--% Chance of Precip.
Yesterday
High -- | Low -- °F
Precip. -- in
Pressure 29.82 in
Visibility 10.0 miles
Clouds Few 7000 ft
Windchill 43 °F
Dew Point -8 °F
Humidity 11%
Rainfall 0.00 in
Snow Depth Not available.
6:36 AM 5:48 PM
New Moon, 0% visible
METAR KBKF 261858Z 23007KT 10SM FEW070 03/M21 A2978 RMK AO2A SLP096 T00331210
Pressure 29.82 in
Visibility 10.0 miles
Clouds Few 7000 ft
Windchill 43 °F
Dew Point -8 °F
Humidity 11%
Rainfall 0.00 in
Snow Depth Not available.
6:36 AM 5:48 PM
New Moon, 0% visible
METAR KBKF 261858Z 23007KT 10SM FEW070 03/M21 A2978 RMK AO2A SLP096 T00331210

Get Your Daily Forecast Email!

Thanks for signing up!

Be on the lookout for a verification email in your inbox.

You'll start receiving the daily forecast at 8 AM.

×

10-Day Weather Forecast

Almanac

Astronomy

Feb. 26, 2017 Rise Set
Actual Time
Civil Twilight
Nautical Twilight
Astronomical Twilight
Moon
Length of Visible Light
Length of Day
Tomorrow will be .
, % of the Moon is Illuminated

Today's Extremes

State Highs State Lows

Community

WunderPhotos

Upload Photos

1,962,540 photos uploaded!

WunderBlog® & News

Nearby

Air Quality

  Air Quality AQ Index Pollutant
Not available.

Snow Depth

Station Depth Elevation

Earthquake Activity

City Distance Mag. Time & Date
Minimum magnitude displayed is 2.5.

Coastal Water Temperatures

Place Temperature

Stations

Nearby Weather Stations

Station Location Temp. Windchill Dew Point Humidity Wind Precip. Elev Updated Type
                   

Watches & Warnings

There are currently no watches in effect.